Gold Hill, North Carolina
Current Conditions -  °F | °C
As of 3:35 AM on Sunday 23 Nov 2014 (Local Time) from KVUJ Reporting Station
Overcast Overcast  
Wind Chill: 41°   Ceiling: 2300
Heat Index: 41°   Visibility: 10mi
Dew Point: 33°   Wind: 0mph
Humidity: 74%   Direction: NA
Pressure: 30.31"   Gusts: NA
Location:  35.52°N, 80.34°W
Report Text: KVUJ 230835Z AUTO 00000KT 10SM OVC023 05/01 A3031 RMK AO2 T00500008
Loading
Personal Weather Stations






























Interactive Weather Map New forecast layout! Learn more

10-Day Weather Forecast

Advertisements
Track Severe Weather on mobile